DAOF

Tindouf Airport

Tindouf, Algeria
METAR DAOF 201700Z 25016KT 9999 FEW046 SCT233 27/06 Q1013
Observed Flight Rules
Oct-20 @ 17:00 UTC (47 minutes ago) Visual Flight Rules
Wind Visibility Clouds
250° at 16 knots 10,000+ meters
  • Few at 4,600' AGL
  • Scattered at 23,300' AGL
Temperatures Readings
Current 27°C / 81°F
Dewpoint 6°C / 43°F
Humidity 26%
Altimeter 29.91" Hg
Pressure 1013 hPa
Elevation 431
METAR DAOF 201700Z 25016KT 9999 FEW046 SCT233 27/06 Q1013
Observed Flight Rules
Oct-20 @ 17:00 UTC
(47 minutes ago)
VFR
Wind Visibility
250° at 16 knots 10,000+ meters
Clouds
  • Few at 4,600' AGL
  • Scattered at 23,300' AGL
Temperature Dewpoint
27°C / 81°F 6°C / 43°F
Humidity Altimeter Pressure
26% 29.91" Hg 1013 hPa